Suncadia, Washington
Current Conditions -  °F | °C
As of 9:53 AM on Friday 28 Nov 2014 (Local Time) from KELN Reporting Station
Overcast Overcast  
Wind Chill: 39°   Ceiling: 6000
Heat Index: 43°   Visibility: 10mi
Dew Point: 39°   Wind: 6mph
Humidity: 86%   Direction: 10°N
Pressure: 29.48"   Gusts: NA
Location:  47.3367°N, 121.023°W
Report Text: KELN 281753Z AUTO 01005KT 10SM OVC060 06/04 A2948 RMK AO2 SLP988 T00610039 10061 20006 58018 $
Loading
Personal Weather Stations






























Interactive Weather Map New forecast layout! Learn more

10-Day Weather Forecast

Advertisements
Track Severe Weather on mobile